sensor_id;sensor_type;location;lat;lon;timestamp;temperature;humidity
51215;DHT22;63849;47.546;19.254;2023-04-15T00:00:10;6.00;89.40
51215;DHT22;63849;47.546;19.254;2023-04-15T00:02:36;6.00;89.40
51215;DHT22;63849;47.546;19.254;2023-04-15T00:05:04;6.10;89.60
51215;DHT22;63849;47.546;19.254;2023-04-15T00:07:30;6.20;89.20
51215;DHT22;63849;47.546;19.254;2023-04-15T00:09:56;6.10;89.30
51215;DHT22;63849;47.546;19.254;2023-04-15T00:12:31;6.00;89.40
51215;DHT22;63849;47.546;19.254;2023-04-15T00:14:57;6.20;89.10
51215;DHT22;63849;47.546;19.254;2023-04-15T00:17:23;6.20;88.90
51215;DHT22;63849;47.546;19.254;2023-04-15T00:19:49;6.30;88.60
51215;DHT22;63849;47.546;19.254;2023-04-15T00:22:17;6.40;88.20
51215;DHT22;63849;47.546;19.254;2023-04-15T00:24:44;6.30;88.90
51215;DHT22;63849;47.546;19.254;2023-04-15T00:27:10;6.30;88.90
51215;DHT22;63849;47.546;19.254;2023-04-15T00:29:36;6.40;88.60
51215;DHT22;63849;47.546;19.254;2023-04-15T00:32:02;6.30;88.30
51215;DHT22;63849;47.546;19.254;2023-04-15T00:34:27;6.30;88.30
51215;DHT22;63849;47.546;19.254;2023-04-15T00:36:53;6.30;88.60
51215;DHT22;63849;47.546;19.254;2023-04-15T00:39:19;6.30;88.90
51215;DHT22;63849;47.546;19.254;2023-04-15T00:41:48;6.30;88.70
51215;DHT22;63849;47.546;19.254;2023-04-15T00:44:14;6.20;88.60
51215;DHT22;63849;47.546;19.254;2023-04-15T00:46:40;6.30;88.70
51215;DHT22;63849;47.546;19.254;2023-04-15T00:49:07;6.40;88.20
51215;DHT22;63849;47.546;19.254;2023-04-15T00:51:34;6.40;88.00
51215;DHT22;63849;47.546;19.254;2023-04-15T00:54:05;6.50;88.00
51215;DHT22;63849;47.546;19.254;2023-04-15T00:56:36;6.60;88.00
51215;DHT22;63849;47.546;19.254;2023-04-15T00:59:03;6.50;87.90
51215;DHT22;63849;47.546;19.254;2023-04-15T01:01:29;6.50;87.80
51215;DHT22;63849;47.546;19.254;2023-04-15T01:03:56;6.50;87.50
51215;DHT22;63849;47.546;19.254;2023-04-15T01:06:25;6.50;87.90
51215;DHT22;63849;47.546;19.254;2023-04-15T01:08:52;6.40;88.10
51215;DHT22;63849;47.546;19.254;2023-04-15T01:11:18;6.60;87.80
51215;DHT22;63849;47.546;19.254;2023-04-15T01:13:46;6.70;87.50
51215;DHT22;63849;47.546;19.254;2023-04-15T01:16:13;6.50;88.20
51215;DHT22;63849;47.546;19.254;2023-04-15T01:18:39;6.50;88.20
51215;DHT22;63849;47.546;19.254;2023-04-15T01:21:05;6.30;88.40
51215;DHT22;63849;47.546;19.254;2023-04-15T01:23:34;6.30;88.60
51215;DHT22;63849;47.546;19.254;2023-04-15T01:26:02;6.40;88.40
51215;DHT22;63849;47.546;19.254;2023-04-15T01:28:30;6.50;88.30
51215;DHT22;63849;47.546;19.254;2023-04-15T01:31:14;6.50;88.20
51215;DHT22;63849;47.546;19.254;2023-04-15T01:33:41;6.50;87.90
51215;DHT22;63849;47.546;19.254;2023-04-15T01:36:08;6.50;88.00
51215;DHT22;63849;47.546;19.254;2023-04-15T01:38:35;6.50;88.10
51215;DHT22;63849;47.546;19.254;2023-04-15T01:41:01;6.40;88.70
51215;DHT22;63849;47.546;19.254;2023-04-15T01:43:29;6.60;88.40
51215;DHT22;63849;47.546;19.254;2023-04-15T01:45:55;6.50;88.50
51215;DHT22;63849;47.546;19.254;2023-04-15T01:48:21;6.50;88.70
51215;DHT22;63849;47.546;19.254;2023-04-15T01:50:48;6.50;88.70
51215;DHT22;63849;47.546;19.254;2023-04-15T01:53:14;6.50;88.60
51215;DHT22;63849;47.546;19.254;2023-04-15T01:55:40;6.50;88.40
51215;DHT22;63849;47.546;19.254;2023-04-15T01:58:06;6.60;88.60
51215;DHT22;63849;47.546;19.254;2023-04-15T02:00:32;6.60;89.00
51215;DHT22;63849;47.546;19.254;2023-04-15T02:02:58;6.50;89.10
51215;DHT22;63849;47.546;19.254;2023-04-15T02:05:25;6.50;89.00
51215;DHT22;63849;47.546;19.254;2023-04-15T02:07:51;6.50;89.20
51215;DHT22;63849;47.546;19.254;2023-04-15T02:10:16;6.60;89.00
51215;DHT22;63849;47.546;19.254;2023-04-15T02:12:43;6.70;88.70
51215;DHT22;63849;47.546;19.254;2023-04-15T02:15:10;6.70;88.60
51215;DHT22;63849;47.546;19.254;2023-04-15T02:17:36;6.60;89.00
51215;DHT22;63849;47.546;19.254;2023-04-15T02:20:02;6.70;88.70
51215;DHT22;63849;47.546;19.254;2023-04-15T02:22:33;6.70;89.20
51215;DHT22;63849;47.546;19.254;2023-04-15T02:24:59;6.70;89.10
51215;DHT22;63849;47.546;19.254;2023-04-15T02:27:25;6.60;88.90
51215;DHT22;63849;47.546;19.254;2023-04-15T02:29:51;6.70;89.40
51215;DHT22;63849;47.546;19.254;2023-04-15T02:32:16;6.70;89.00
51215;DHT22;63849;47.546;19.254;2023-04-15T02:34:43;6.80;89.20
51215;DHT22;63849;47.546;19.254;2023-04-15T02:37:10;6.80;88.70
51215;DHT22;63849;47.546;19.254;2023-04-15T02:39:36;6.80;88.80
51215;DHT22;63849;47.546;19.254;2023-04-15T02:42:02;6.70;88.70
51215;DHT22;63849;47.546;19.254;2023-04-15T02:44:29;6.70;88.90
51215;DHT22;63849;47.546;19.254;2023-04-15T02:46:57;6.80;89.10
51215;DHT22;63849;47.546;19.254;2023-04-15T02:49:23;6.70;88.90
51215;DHT22;63849;47.546;19.254;2023-04-15T02:51:50;6.80;88.90
51215;DHT22;63849;47.546;19.254;2023-04-15T02:54:19;6.80;89.00
51215;DHT22;63849;47.546;19.254;2023-04-15T02:56:47;6.80;89.50
51215;DHT22;63849;47.546;19.254;2023-04-15T02:59:14;6.70;89.40
51215;DHT22;63849;47.546;19.254;2023-04-15T03:01:40;6.80;89.00
51215;DHT22;63849;47.546;19.254;2023-04-15T03:04:06;6.80;89.60
51215;DHT22;63849;47.546;19.254;2023-04-15T03:06:34;6.80;89.80
51215;DHT22;63849;47.546;19.254;2023-04-15T03:09:00;6.90;89.80
51215;DHT22;63849;47.546;19.254;2023-04-15T03:11:28;6.80;90.00
51215;DHT22;63849;47.546;19.254;2023-04-15T03:13:54;6.90;89.90
51215;DHT22;63849;47.546;19.254;2023-04-15T03:16:20;7.00;89.20
51215;DHT22;63849;47.546;19.254;2023-04-15T03:18:46;7.10;88.90
51215;DHT22;63849;47.546;19.254;2023-04-15T03:21:11;7.00;88.80
51215;DHT22;63849;47.546;19.254;2023-04-15T03:23:38;7.00;89.40
51215;DHT22;63849;47.546;19.254;2023-04-15T03:26:04;7.00;89.30
51215;DHT22;63849;47.546;19.254;2023-04-15T03:28:30;7.00;89.30
51215;DHT22;63849;47.546;19.254;2023-04-15T03:30:57;7.10;89.10
51215;DHT22;63849;47.546;19.254;2023-04-15T03:33:23;7.10;89.30
51215;DHT22;63849;47.546;19.254;2023-04-15T03:35:50;7.10;89.00
51215;DHT22;63849;47.546;19.254;2023-04-15T03:38:16;7.00;89.40
51215;DHT22;63849;47.546;19.254;2023-04-15T03:40:42;7.00;90.10
51215;DHT22;63849;47.546;19.254;2023-04-15T03:43:08;7.00;90.00
51215;DHT22;63849;47.546;19.254;2023-04-15T03:45:34;7.00;90.10
51215;DHT22;63849;47.546;19.254;2023-04-15T03:48:00;7.00;90.10
51215;DHT22;63849;47.546;19.254;2023-04-15T03:50:26;7.00;90.20
51215;DHT22;63849;47.546;19.254;2023-04-15T03:52:52;7.10;90.20
51215;DHT22;63849;47.546;19.254;2023-04-15T03:55:18;7.10;90.00
51215;DHT22;63849;47.546;19.254;2023-04-15T03:57:44;7.10;90.30
51215;DHT22;63849;47.546;19.254;2023-04-15T04:00:10;7.10;90.50
51215;DHT22;63849;47.546;19.254;2023-04-15T04:02:36;7.10;90.60
51215;DHT22;63849;47.546;19.254;2023-04-15T04:05:02;7.20;90.50
51215;DHT22;63849;47.546;19.254;2023-04-15T04:07:28;7.30;90.50
51215;DHT22;63849;47.546;19.254;2023-04-15T04:09:56;7.30;90.60
51215;DHT22;63849;47.546;19.254;2023-04-15T04:12:22;7.20;90.70
51215;DHT22;63849;47.546;19.254;2023-04-15T04:14:48;7.10;90.60
51215;DHT22;63849;47.546;19.254;2023-04-15T04:17:13;7.20;90.70
51215;DHT22;63849;47.546;19.254;2023-04-15T04:19:39;7.10;90.70
51215;DHT22;63849;47.546;19.254;2023-04-15T04:22:05;7.20;90.70
51215;DHT22;63849;47.546;19.254;2023-04-15T04:24:31;7.10;91.00
51215;DHT22;63849;47.546;19.254;2023-04-15T04:26:57;7.20;90.80
51215;DHT22;63849;47.546;19.254;2023-04-15T04:29:23;7.20;90.70
51215;DHT22;63849;47.546;19.254;2023-04-15T04:31:48;7.30;90.30
51215;DHT22;63849;47.546;19.254;2023-04-15T04:34:15;7.40;90.00
51215;DHT22;63849;47.546;19.254;2023-04-15T04:36:41;7.30;89.90
51215;DHT22;63849;47.546;19.254;2023-04-15T04:39:06;7.30;89.70
51215;DHT22;63849;47.546;19.254;2023-04-15T04:41:32;7.30;89.80
51215;DHT22;63849;47.546;19.254;2023-04-15T04:43:58;7.30;89.80
51215;DHT22;63849;47.546;19.254;2023-04-15T04:46:24;7.50;89.60
51215;DHT22;63849;47.546;19.254;2023-04-15T04:48:50;7.60;89.30
51215;DHT22;63849;47.546;19.254;2023-04-15T04:51:15;7.70;88.60
51215;DHT22;63849;47.546;19.254;2023-04-15T04:53:42;7.90;88.30
51215;DHT22;63849;47.546;19.254;2023-04-15T04:56:08;8.00;88.10
51215;DHT22;63849;47.546;19.254;2023-04-15T04:58:34;8.40;87.60
51215;DHT22;63849;47.546;19.254;2023-04-15T05:00:59;8.90;86.00
51215;DHT22;63849;47.546;19.254;2023-04-15T05:03:26;8.90;84.10
51215;DHT22;63849;47.546;19.254;2023-04-15T05:05:51;8.90;84.90
51215;DHT22;63849;47.546;19.254;2023-04-15T05:08:17;8.60;85.00
51215;DHT22;63849;47.546;19.254;2023-04-15T05:10:43;8.30;85.90
51215;DHT22;63849;47.546;19.254;2023-04-15T05:13:09;7.90;86.90
51215;DHT22;63849;47.546;19.254;2023-04-15T05:15:35;7.80;87.40
51215;DHT22;63849;47.546;19.254;2023-04-15T05:18:03;7.90;87.40
51215;DHT22;63849;47.546;19.254;2023-04-15T05:20:29;7.90;88.10
51215;DHT22;63849;47.546;19.254;2023-04-15T05:22:55;8.10;88.20
51215;DHT22;63849;47.546;19.254;2023-04-15T05:25:20;8.30;87.10
51215;DHT22;63849;47.546;19.254;2023-04-15T05:27:46;8.40;86.40
51215;DHT22;63849;47.546;19.254;2023-04-15T05:30:12;8.60;86.10
51215;DHT22;63849;47.546;19.254;2023-04-15T05:32:38;8.60;85.20
51215;DHT22;63849;47.546;19.254;2023-04-15T05:35:04;8.70;85.70
51215;DHT22;63849;47.546;19.254;2023-04-15T05:37:30;8.60;85.40
51215;DHT22;63849;47.546;19.254;2023-04-15T05:39:55;8.40;85.90
51215;DHT22;63849;47.546;19.254;2023-04-15T05:42:21;8.00;87.00
51215;DHT22;63849;47.546;19.254;2023-04-15T05:44:47;8.00;87.80
51215;DHT22;63849;47.546;19.254;2023-04-15T05:47:13;7.90;87.80
51215;DHT22;63849;47.546;19.254;2023-04-15T05:49:38;7.90;88.00
51215;DHT22;63849;47.546;19.254;2023-04-15T05:52:04;7.90;87.90
51215;DHT22;63849;47.546;19.254;2023-04-15T05:54:30;7.90;88.20
51215;DHT22;63849;47.546;19.254;2023-04-15T05:56:56;8.10;87.90
51215;DHT22;63849;47.546;19.254;2023-04-15T05:59:22;8.30;87.20
51215;DHT22;63849;47.546;19.254;2023-04-15T06:01:49;8.20;87.50
51215;DHT22;63849;47.546;19.254;2023-04-15T06:04:16;8.20;87.10
51215;DHT22;63849;47.546;19.254;2023-04-15T06:06:42;8.10;87.90
51215;DHT22;63849;47.546;19.254;2023-04-15T06:09:08;7.80;89.40
51215;DHT22;63849;47.546;19.254;2023-04-15T06:11:33;7.90;88.70
51215;DHT22;63849;47.546;19.254;2023-04-15T06:14:00;8.00;89.20
51215;DHT22;63849;47.546;19.254;2023-04-15T06:16:25;8.00;89.10
51215;DHT22;63849;47.546;19.254;2023-04-15T06:18:51;8.10;88.20
51215;DHT22;63849;47.546;19.254;2023-04-15T06:21:17;8.10;87.90
51215;DHT22;63849;47.546;19.254;2023-04-15T06:23:43;8.30;89.30
51215;DHT22;63849;47.546;19.254;2023-04-15T06:26:09;8.30;88.10
51215;DHT22;63849;47.546;19.254;2023-04-15T06:28:35;8.30;87.80
51215;DHT22;63849;47.546;19.254;2023-04-15T06:31:01;8.30;88.60
51215;DHT22;63849;47.546;19.254;2023-04-15T06:33:27;8.40;88.30
51215;DHT22;63849;47.546;19.254;2023-04-15T06:35:54;8.40;88.20
51215;DHT22;63849;47.546;19.254;2023-04-15T06:38:20;8.50;88.30
51215;DHT22;63849;47.546;19.254;2023-04-15T06:40:46;8.50;87.80
51215;DHT22;63849;47.546;19.254;2023-04-15T06:43:12;8.60;87.60
51215;DHT22;63849;47.546;19.254;2023-04-15T06:45:38;9.30;88.40
51215;DHT22;63849;47.546;19.254;2023-04-15T06:48:04;9.80;84.70
51215;DHT22;63849;47.546;19.254;2023-04-15T06:50:30;10.30;84.40
51215;DHT22;63849;47.546;19.254;2023-04-15T06:52:56;11.00;82.00
51215;DHT22;63849;47.546;19.254;2023-04-15T06:55:22;13.10;79.20
51215;DHT22;63849;47.546;19.254;2023-04-15T06:57:47;14.50;73.70
51215;DHT22;63849;47.546;19.254;2023-04-15T07:00:13;15.40;65.10
51215;DHT22;63849;47.546;19.254;2023-04-15T07:02:40;13.80;71.00
51215;DHT22;63849;47.546;19.254;2023-04-15T07:05:06;13.40;71.20
51215;DHT22;63849;47.546;19.254;2023-04-15T07:07:32;12.80;73.10
51215;DHT22;63849;47.546;19.254;2023-04-15T07:09:58;13.80;71.50
51215;DHT22;63849;47.546;19.254;2023-04-15T07:12:24;14.90;68.80
51215;DHT22;63849;47.546;19.254;2023-04-15T07:14:50;15.40;67.50
51215;DHT22;63849;47.546;19.254;2023-04-15T07:17:16;14.90;67.20
51215;DHT22;63849;47.546;19.254;2023-04-15T07:19:42;14.60;68.20
51215;DHT22;63849;47.546;19.254;2023-04-15T07:22:07;14.50;64.80
51215;DHT22;63849;47.546;19.254;2023-04-15T07:24:33;14.40;67.00
51215;DHT22;63849;47.546;19.254;2023-04-15T07:26:59;13.50;68.50
51215;DHT22;63849;47.546;19.254;2023-04-15T07:29:25;13.70;69.20
51215;DHT22;63849;47.546;19.254;2023-04-15T07:31:51;13.30;70.00
51215;DHT22;63849;47.546;19.254;2023-04-15T07:34:18;13.00;71.10
51215;DHT22;63849;47.546;19.254;2023-04-15T07:36:45;12.40;71.70
51215;DHT22;63849;47.546;19.254;2023-04-15T07:39:15;11.80;74.30
51215;DHT22;63849;47.546;19.254;2023-04-15T07:41:41;11.50;76.60
51215;DHT22;63849;47.546;19.254;2023-04-15T07:44:07;11.70;76.40
51215;DHT22;63849;47.546;19.254;2023-04-15T07:46:32;11.70;74.90
51215;DHT22;63849;47.546;19.254;2023-04-15T07:48:58;11.40;74.70
51215;DHT22;63849;47.546;19.254;2023-04-15T07:51:24;11.90;76.20
51215;DHT22;63849;47.546;19.254;2023-04-15T07:53:50;11.90;74.70
51215;DHT22;63849;47.546;19.254;2023-04-15T07:56:16;11.50;75.20
51215;DHT22;63849;47.546;19.254;2023-04-15T07:58:42;11.80;76.30
51215;DHT22;63849;47.546;19.254;2023-04-15T08:01:08;12.00;74.00
51215;DHT22;63849;47.546;19.254;2023-04-15T08:03:34;11.80;74.80
51215;DHT22;63849;47.546;19.254;2023-04-15T08:05:59;11.40;76.80
51215;DHT22;63849;47.546;19.254;2023-04-15T08:08:25;11.60;74.50
51215;DHT22;63849;47.546;19.254;2023-04-15T08:10:51;12.00;75.10
51215;DHT22;63849;47.546;19.254;2023-04-15T08:13:17;12.20;74.20
51215;DHT22;63849;47.546;19.254;2023-04-15T08:15:43;12.40;70.90
51215;DHT22;63849;47.546;19.254;2023-04-15T08:18:09;12.50;70.60
51215;DHT22;63849;47.546;19.254;2023-04-15T08:20:35;12.70;70.30
51215;DHT22;63849;47.546;19.254;2023-04-15T08:23:02;12.40;72.50
51215;DHT22;63849;47.546;19.254;2023-04-15T08:25:29;12.70;71.70
51215;DHT22;63849;47.546;19.254;2023-04-15T08:27:55;13.00;72.00
51215;DHT22;63849;47.546;19.254;2023-04-15T08:30:23;12.90;69.00
51215;DHT22;63849;47.546;19.254;2023-04-15T08:32:49;12.80;70.60
51215;DHT22;63849;47.546;19.254;2023-04-15T08:35:15;12.80;68.70
51215;DHT22;63849;47.546;19.254;2023-04-15T08:37:41;13.10;68.60
51215;DHT22;63849;47.546;19.254;2023-04-15T08:40:07;13.30;68.30
51215;DHT22;63849;47.546;19.254;2023-04-15T08:42:43;13.40;70.30
51215;DHT22;63849;47.546;19.254;2023-04-15T08:45:10;13.40;67.90
51215;DHT22;63849;47.546;19.254;2023-04-15T08:47:37;13.40;66.60
51215;DHT22;63849;47.546;19.254;2023-04-15T08:50:08;13.70;67.50
51215;DHT22;63849;47.546;19.254;2023-04-15T08:52:36;13.90;64.60
51215;DHT22;63849;47.546;19.254;2023-04-15T08:55:02;13.70;63.50
51215;DHT22;63849;47.546;19.254;2023-04-15T08:57:29;13.90;66.20
51215;DHT22;63849;47.546;19.254;2023-04-15T08:59:56;14.20;65.10
51215;DHT22;63849;47.546;19.254;2023-04-15T09:02:23;13.60;67.10
51215;DHT22;63849;47.546;19.254;2023-04-15T09:04:50;13.30;67.70
51215;DHT22;63849;47.546;19.254;2023-04-15T09:07:16;13.10;65.10
51215;DHT22;63849;47.546;19.254;2023-04-15T09:09:42;13.10;65.30
51215;DHT22;63849;47.546;19.254;2023-04-15T09:12:11;13.30;64.50
51215;DHT22;63849;47.546;19.254;2023-04-15T09:14:39;13.40;65.40
51215;DHT22;63849;47.546;19.254;2023-04-15T09:17:05;13.10;65.70
51215;DHT22;63849;47.546;19.254;2023-04-15T09:19:34;12.70;65.40
51215;DHT22;63849;47.546;19.254;2023-04-15T09:22:01;12.50;68.70
51215;DHT22;63849;47.546;19.254;2023-04-15T09:24:37;12.40;69.50
51215;DHT22;63849;47.546;19.254;2023-04-15T09:27:04;12.40;68.40
51215;DHT22;63849;47.546;19.254;2023-04-15T09:29:30;12.40;70.30
51215;DHT22;63849;47.546;19.254;2023-04-15T09:32:19;12.70;70.80
51215;DHT22;63849;47.546;19.254;2023-04-15T09:34:45;13.20;68.30
51215;DHT22;63849;47.546;19.254;2023-04-15T09:37:12;13.10;66.50
51215;DHT22;63849;47.546;19.254;2023-04-15T09:39:51;13.00;65.90
51215;DHT22;63849;47.546;19.254;2023-04-15T09:42:17;13.20;68.50
51215;DHT22;63849;47.546;19.254;2023-04-15T09:44:49;13.10;64.90
51215;DHT22;63849;47.546;19.254;2023-04-15T09:47:29;13.10;66.30
51215;DHT22;63849;47.546;19.254;2023-04-15T09:49:57;13.20;64.80
51215;DHT22;63849;47.546;19.254;2023-04-15T09:52:23;13.10;64.90
51215;DHT22;63849;47.546;19.254;2023-04-15T09:54:52;13.00;64.10
51215;DHT22;63849;47.546;19.254;2023-04-15T09:57:20;13.20;64.20
51215;DHT22;63849;47.546;19.254;2023-04-15T09:59:46;13.50;65.30
51215;DHT22;63849;47.546;19.254;2023-04-15T10:02:13;13.90;63.90
51215;DHT22;63849;47.546;19.254;2023-04-15T10:04:40;14.00;63.20
51215;DHT22;63849;47.546;19.254;2023-04-15T10:07:11;13.80;63.00
51215;DHT22;63849;47.546;19.254;2023-04-15T10:09:40;13.70;62.10
51215;DHT22;63849;47.546;19.254;2023-04-15T10:12:08;13.00;63.70
51215;DHT22;63849;47.546;19.254;2023-04-15T10:14:34;13.10;65.60
51215;DHT22;63849;47.546;19.254;2023-04-15T10:17:03;13.20;64.90
51215;DHT22;63849;47.546;19.254;2023-04-15T10:19:35;13.10;65.70
51215;DHT22;63849;47.546;19.254;2023-04-15T10:22:01;13.40;66.00
51215;DHT22;63849;47.546;19.254;2023-04-15T10:24:28;13.50;65.30
51215;DHT22;63849;47.546;19.254;2023-04-15T10:26:56;13.30;62.80
51215;DHT22;63849;47.546;19.254;2023-04-15T10:29:24;13.30;62.30
51215;DHT22;63849;47.546;19.254;2023-04-15T10:31:56;13.60;61.70
51215;DHT22;63849;47.546;19.254;2023-04-15T10:34:25;14.00;60.90
51215;DHT22;63849;47.546;19.254;2023-04-15T10:36:55;14.50;60.10
51215;DHT22;63849;47.546;19.254;2023-04-15T10:39:38;14.60;60.20
51215;DHT22;63849;47.546;19.254;2023-04-15T10:42:05;14.70;60.70
51215;DHT22;63849;47.546;19.254;2023-04-15T10:44:32;13.90;61.40
51215;DHT22;63849;47.546;19.254;2023-04-15T10:46:59;13.30;62.20
51215;DHT22;63849;47.546;19.254;2023-04-15T10:49:25;13.30;65.20
51215;DHT22;63849;47.546;19.254;2023-04-15T10:52:07;13.60;64.90
51215;DHT22;63849;47.546;19.254;2023-04-15T10:54:34;13.40;66.10
51215;DHT22;63849;47.546;19.254;2023-04-15T10:59:36;13.60;67.30
51215;DHT22;63849;47.546;19.254;2023-04-15T11:02:06;13.50;68.00
51215;DHT22;63849;47.546;19.254;2023-04-15T11:04:57;13.60;66.90
51215;DHT22;63849;47.546;19.254;2023-04-15T11:12:47;13.70;65.00
51215;DHT22;63849;47.546;19.254;2023-04-15T11:20:49;14.20;63.70
51215;DHT22;63849;47.546;19.254;2023-04-15T11:23:18;14.90;62.10
51215;DHT22;63849;47.546;19.254;2023-04-15T11:25:44;14.50;61.70
51215;DHT22;63849;47.546;19.254;2023-04-15T11:28:11;14.60;61.70
51215;DHT22;63849;47.546;19.254;2023-04-15T11:30:38;14.70;61.40
51215;DHT22;63849;47.546;19.254;2023-04-15T11:33:08;14.60;61.70
51215;DHT22;63849;47.546;19.254;2023-04-15T11:35:35;14.60;61.70
51215;DHT22;63849;47.546;19.254;2023-04-15T11:38:05;14.20;63.00
51215;DHT22;63849;47.546;19.254;2023-04-15T11:40:33;13.50;66.60
51215;DHT22;63849;47.546;19.254;2023-04-15T11:43:16;13.50;67.90
51215;DHT22;63849;47.546;19.254;2023-04-15T11:48:26;14.10;66.50
51215;DHT22;63849;47.546;19.254;2023-04-15T11:50:57;14.40;65.30
51215;DHT22;63849;47.546;19.254;2023-04-15T11:53:23;14.60;63.10
51215;DHT22;63849;47.546;19.254;2023-04-15T11:55:51;14.00;65.10
51215;DHT22;63849;47.546;19.254;2023-04-15T11:58:23;14.00;66.30
51215;DHT22;63849;47.546;19.254;2023-04-15T12:00:54;14.30;65.30
51215;DHT22;63849;47.546;19.254;2023-04-15T12:03:34;13.90;63.60
51215;DHT22;63849;47.546;19.254;2023-04-15T12:06:22;14.10;64.20
51215;DHT22;63849;47.546;19.254;2023-04-15T12:09:11;14.00;63.00
51215;DHT22;63849;47.546;19.254;2023-04-15T12:11:49;14.10;63.40
51215;DHT22;63849;47.546;19.254;2023-04-15T12:16:56;14.20;64.40
51215;DHT22;63849;47.546;19.254;2023-04-15T12:19:36;13.80;65.20
51215;DHT22;63849;47.546;19.254;2023-04-15T12:22:05;13.90;64.20
51215;DHT22;63849;47.546;19.254;2023-04-15T12:24:32;14.30;63.70
51215;DHT22;63849;47.546;19.254;2023-04-15T12:27:10;13.90;63.00
51215;DHT22;63849;47.546;19.254;2023-04-15T12:29:38;13.80;64.10
51215;DHT22;63849;47.546;19.254;2023-04-15T12:34:34;13.90;65.20
51215;DHT22;63849;47.546;19.254;2023-04-15T12:37:01;14.40;63.50
51215;DHT22;63849;47.546;19.254;2023-04-15T12:39:37;14.70;62.70
51215;DHT22;63849;47.546;19.254;2023-04-15T12:42:04;14.80;62.20
51215;DHT22;63849;47.546;19.254;2023-04-15T12:44:31;14.90;60.70
51215;DHT22;63849;47.546;19.254;2023-04-15T12:46:57;14.40;63.50
51215;DHT22;63849;47.546;19.254;2023-04-15T12:49:24;14.30;64.30
51215;DHT22;63849;47.546;19.254;2023-04-15T12:51:53;14.30;61.70
51215;DHT22;63849;47.546;19.254;2023-04-15T12:54:19;13.90;62.50
51215;DHT22;63849;47.546;19.254;2023-04-15T12:56:47;13.60;63.90
51215;DHT22;63849;47.546;19.254;2023-04-15T12:59:14;13.30;63.50
51215;DHT22;63849;47.546;19.254;2023-04-15T13:01:42;13.10;65.50
51215;DHT22;63849;47.546;19.254;2023-04-15T13:04:08;12.90;64.70
51215;DHT22;63849;47.546;19.254;2023-04-15T13:06:33;12.60;67.10
51215;DHT22;63849;47.546;19.254;2023-04-15T13:09:00;12.50;67.30
51215;DHT22;63849;47.546;19.254;2023-04-15T13:11:26;12.30;67.50
51215;DHT22;63849;47.546;19.254;2023-04-15T13:13:54;12.50;68.50
51215;DHT22;63849;47.546;19.254;2023-04-15T13:16:20;13.20;66.30
51215;DHT22;63849;47.546;19.254;2023-04-15T13:18:47;13.30;66.60
51215;DHT22;63849;47.546;19.254;2023-04-15T13:21:13;13.20;66.10
51215;DHT22;63849;47.546;19.254;2023-04-15T13:23:40;13.30;64.40
51215;DHT22;63849;47.546;19.254;2023-04-15T13:26:06;13.40;65.70
51215;DHT22;63849;47.546;19.254;2023-04-15T13:28:33;13.40;63.40
51215;DHT22;63849;47.546;19.254;2023-04-15T13:30:59;13.50;64.10
51215;DHT22;63849;47.546;19.254;2023-04-15T13:33:26;13.90;63.30
51215;DHT22;63849;47.546;19.254;2023-04-15T13:35:52;14.00;62.80
51215;DHT22;63849;47.546;19.254;2023-04-15T13:38:19;14.10;62.30
51215;DHT22;63849;47.546;19.254;2023-04-15T13:40:45;14.30;62.70
51215;DHT22;63849;47.546;19.254;2023-04-15T13:43:11;13.90;60.40
51215;DHT22;63849;47.546;19.254;2023-04-15T13:45:36;13.80;63.30
51215;DHT22;63849;47.546;19.254;2023-04-15T13:48:03;13.90;62.70
51215;DHT22;63849;47.546;19.254;2023-04-15T13:50:29;14.00;62.20
51215;DHT22;63849;47.546;19.254;2023-04-15T13:52:55;14.10;61.20
51215;DHT22;63849;47.546;19.254;2023-04-15T13:55:23;13.80;63.50
51215;DHT22;63849;47.546;19.254;2023-04-15T13:57:49;13.60;62.50
51215;DHT22;63849;47.546;19.254;2023-04-15T14:00:15;13.40;65.10
51215;DHT22;63849;47.546;19.254;2023-04-15T14:02:41;13.60;64.70
51215;DHT22;63849;47.546;19.254;2023-04-15T14:05:07;13.60;64.80
51215;DHT22;63849;47.546;19.254;2023-04-15T14:07:33;13.70;65.60
51215;DHT22;63849;47.546;19.254;2023-04-15T14:09:59;13.40;66.80
51215;DHT22;63849;47.546;19.254;2023-04-15T14:12:25;13.00;66.80
51215;DHT22;63849;47.546;19.254;2023-04-15T14:14:51;12.70;67.60
51215;DHT22;63849;47.546;19.254;2023-04-15T14:17:17;12.50;69.40
51215;DHT22;63849;47.546;19.254;2023-04-15T14:19:43;12.50;70.10
51215;DHT22;63849;47.546;19.254;2023-04-15T14:22:08;12.40;68.70
51215;DHT22;63849;47.546;19.254;2023-04-15T14:24:34;12.40;70.10
51215;DHT22;63849;47.546;19.254;2023-04-15T14:27:00;12.60;69.10
51215;DHT22;63849;47.546;19.254;2023-04-15T14:29:27;12.70;68.90
51215;DHT22;63849;47.546;19.254;2023-04-15T14:31:52;12.70;68.90
51215;DHT22;63849;47.546;19.254;2023-04-15T14:34:19;12.60;69.20
51215;DHT22;63849;47.546;19.254;2023-04-15T14:36:46;12.50;69.30
51215;DHT22;63849;47.546;19.254;2023-04-15T14:39:13;12.50;68.60
51215;DHT22;63849;47.546;19.254;2023-04-15T14:41:38;12.30;69.80
51215;DHT22;63849;47.546;19.254;2023-04-15T14:44:04;12.30;70.60
51215;DHT22;63849;47.546;19.254;2023-04-15T14:46:30;12.00;71.10
51215;DHT22;63849;47.546;19.254;2023-04-15T14:48:56;12.00;70.60
51215;DHT22;63849;47.546;19.254;2023-04-15T14:51:22;12.00;70.30
51215;DHT22;63849;47.546;19.254;2023-04-15T14:53:48;12.20;70.80
51215;DHT22;63849;47.546;19.254;2023-04-15T14:56:14;12.30;71.30
51215;DHT22;63849;47.546;19.254;2023-04-15T14:58:39;12.50;70.90
51215;DHT22;63849;47.546;19.254;2023-04-15T15:01:05;12.40;69.60
51215;DHT22;63849;47.546;19.254;2023-04-15T15:03:31;12.40;70.10
51215;DHT22;63849;47.546;19.254;2023-04-15T15:05:57;12.40;69.40
51215;DHT22;63849;47.546;19.254;2023-04-15T15:08:23;12.30;70.20
51215;DHT22;63849;47.546;19.254;2023-04-15T15:10:49;12.50;70.40
51215;DHT22;63849;47.546;19.254;2023-04-15T15:13:16;12.50;70.20
51215;DHT22;63849;47.546;19.254;2023-04-15T15:15:42;12.60;70.50
51215;DHT22;63849;47.546;19.254;2023-04-15T15:18:08;12.50;68.80
51215;DHT22;63849;47.546;19.254;2023-04-15T15:20:34;12.30;68.90
51215;DHT22;63849;47.546;19.254;2023-04-15T15:23:00;12.30;68.00
51215;DHT22;63849;47.546;19.254;2023-04-15T15:25:26;12.30;68.00
51215;DHT22;63849;47.546;19.254;2023-04-15T15:27:52;12.10;69.20
51215;DHT22;63849;47.546;19.254;2023-04-15T15:30:18;12.20;68.20
51215;DHT22;63849;47.546;19.254;2023-04-15T15:32:44;12.20;68.30
51215;DHT22;63849;47.546;19.254;2023-04-15T15:35:10;12.10;67.70
51215;DHT22;63849;47.546;19.254;2023-04-15T15:37:36;12.10;67.10
51215;DHT22;63849;47.546;19.254;2023-04-15T15:40:05;11.90;68.70
51215;DHT22;63849;47.546;19.254;2023-04-15T15:42:32;11.90;68.50